createdAt,value
2023-03-26T00:02:35.177Z,591.00
2023-03-26T00:06:34.995Z,601.00
2023-03-26T00:10:34.963Z,578.00
2023-03-26T00:14:34.941Z,639.00
2023-03-26T00:18:34.983Z,596.00
2023-03-26T00:22:34.905Z,601.00
2023-03-26T00:26:34.885Z,580.00
2023-03-26T00:30:34.912Z,584.00
2023-03-26T00:34:34.853Z,594.00
2023-03-26T00:38:34.880Z,573.00
2023-03-26T00:42:34.813Z,579.00
2023-03-26T00:46:34.837Z,591.00
2023-03-26T00:50:34.770Z,543.00
2023-03-26T00:54:34.772Z,567.00
2023-03-26T00:58:34.761Z,571.00
2023-03-26T01:02:34.810Z,635.00
2023-03-26T01:06:34.700Z,613.00
2023-03-26T01:10:34.670Z,640.00
2023-03-26T01:14:34.665Z,687.00
2023-03-26T01:18:34.645Z,660.00
2023-03-26T01:22:34.626Z,651.00
2023-03-26T01:26:34.586Z,693.00
2023-03-26T01:30:34.574Z,689.00
2023-03-26T01:34:34.577Z,663.00
2023-03-26T01:38:34.532Z,729.00
2023-03-26T01:42:34.562Z,713.00
2023-03-26T01:46:34.564Z,641.00
2023-03-26T01:50:34.513Z,666.00
2023-03-26T01:54:34.503Z,657.00
2023-03-26T01:58:34.485Z,641.00
2023-03-26T02:02:34.529Z,653.00
2023-03-26T02:06:34.472Z,649.00
2023-03-26T02:10:34.421Z,698.00
2023-03-26T02:14:34.417Z,666.00
2023-03-26T02:18:34.393Z,657.00
2023-03-26T02:22:34.416Z,633.00
2023-03-26T02:26:34.400Z,628.00
2023-03-26T02:30:34.399Z,581.00
2023-03-26T02:34:34.360Z,649.00
2023-03-26T02:38:34.340Z,619.00
2023-03-26T02:42:34.345Z,649.00
2023-03-26T02:46:34.305Z,647.00
2023-03-26T02:50:34.308Z,651.00
2023-03-26T02:54:34.302Z,637.00
2023-03-26T02:58:34.281Z,654.00
2023-03-26T03:02:34.396Z,643.00
2023-03-26T03:06:34.241Z,624.00
2023-03-26T03:10:34.215Z,627.00
2023-03-26T03:14:34.191Z,637.00
2023-03-26T03:18:34.207Z,631.00
2023-03-26T03:22:34.171Z,652.00
2023-03-26T03:26:34.192Z,650.00
2023-03-26T03:30:34.145Z,631.00
2023-03-26T03:34:34.121Z,648.00
2023-03-26T03:38:34.180Z,706.00
2023-03-26T03:42:34.150Z,706.00
2023-03-26T03:46:34.157Z,662.00
2023-03-26T03:50:35.769Z,655.00
2023-03-26T03:54:34.092Z,636.00
2023-03-26T03:58:34.090Z,683.00
2023-03-26T04:02:34.145Z,662.00
2023-03-26T04:06:34.073Z,651.00
2023-03-26T04:10:34.062Z,688.00
2023-03-26T04:14:34.065Z,663.00
2023-03-26T04:18:34.013Z,652.00
2023-03-26T04:22:33.999Z,812.00
2023-03-26T04:26:33.994Z,759.00
2023-03-26T04:30:33.946Z,798.00
2023-03-26T04:34:33.930Z,809.00
2023-03-26T04:38:33.926Z,749.00
2023-03-26T04:42:33.947Z,659.00
2023-03-26T04:46:34.000Z,670.00
2023-03-26T04:50:33.935Z,651.00
2023-03-26T04:54:33.896Z,667.00
2023-03-26T04:58:33.896Z,760.00
2023-03-26T05:02:33.892Z,744.00
2023-03-26T05:06:33.859Z,695.00
2023-03-26T05:10:33.837Z,678.00
2023-03-26T05:14:33.852Z,703.00
2023-03-26T05:18:33.832Z,694.00
2023-03-26T05:22:35.413Z,662.00
2023-03-26T05:26:33.809Z,667.00
2023-03-26T05:30:33.768Z,665.00
2023-03-26T05:34:33.728Z,656.00
2023-03-26T05:38:33.676Z,656.00
2023-03-26T05:42:33.646Z,659.00
2023-03-26T05:46:33.736Z,696.00
2023-03-26T05:50:33.585Z,648.00
2023-03-26T05:54:33.549Z,686.00
2023-03-26T05:58:33.514Z,651.00
2023-03-26T06:02:33.478Z,657.00
2023-03-26T06:06:33.449Z,651.00
2023-03-26T06:10:33.394Z,695.00
2023-03-26T06:14:33.343Z,674.00
2023-03-26T06:18:33.347Z,661.00
2023-03-26T06:22:33.286Z,664.00
2023-03-26T06:26:33.247Z,732.00
2023-03-26T06:30:33.219Z,779.00
2023-03-26T06:34:33.178Z,764.00
2023-03-26T06:38:33.148Z,804.00
2023-03-26T06:43:09.669Z,822.00
2023-03-26T06:46:34.135Z,827.00
2023-03-26T06:50:33.188Z,864.00
2023-03-26T06:54:33.085Z,860.00
2023-03-26T06:58:33.042Z,861.00
2023-03-26T07:02:33.055Z,874.00
2023-03-26T07:06:32.971Z,876.00
2023-03-26T07:10:32.951Z,870.00
2023-03-26T07:14:32.902Z,877.00
2023-03-26T07:18:32.851Z,1010.00
2023-03-26T07:22:32.837Z,1070.00
2023-03-26T07:26:32.800Z,1145.00
2023-03-26T07:30:32.783Z,1204.00
2023-03-26T07:34:32.729Z,1193.00
2023-03-26T07:38:32.677Z,1176.00
2023-03-26T07:42:32.659Z,1121.00
2023-03-26T07:46:32.606Z,1048.00
2023-03-26T07:50:32.562Z,1027.00
2023-03-26T07:54:32.557Z,1059.00
2023-03-26T07:58:32.496Z,1079.00
2023-03-26T08:02:32.531Z,1053.00
2023-03-26T08:06:32.427Z,1034.00
2023-03-26T08:10:32.428Z,1043.00
2023-03-26T08:14:32.372Z,1062.00
2023-03-26T08:18:32.421Z,1113.00
2023-03-26T08:22:32.613Z,1114.00
2023-03-26T08:26:32.779Z,1081.00
2023-03-26T08:30:32.934Z,1122.00
2023-03-26T08:34:33.082Z,1101.00
2023-03-26T08:38:33.213Z,1094.00
2023-03-26T08:42:33.282Z,1045.00
2023-03-26T08:46:33.491Z,1062.00
2023-03-26T08:50:33.441Z,1052.00
2023-03-26T08:54:33.527Z,1022.00
2023-03-26T08:58:33.588Z,1037.00
2023-03-26T09:02:33.664Z,1101.00
2023-03-26T09:06:33.747Z,1093.00
2023-03-26T09:10:33.831Z,1107.00
2023-03-26T09:14:33.973Z,1109.00
2023-03-26T09:18:34.075Z,1175.00
2023-03-26T09:22:34.183Z,1162.00
2023-03-26T09:26:34.329Z,1136.00
2023-03-26T09:30:34.485Z,1093.00
2023-03-26T09:34:34.644Z,1089.00
2023-03-26T09:38:34.819Z,1069.00
2023-03-26T09:42:34.965Z,1064.00
2023-03-26T09:46:35.140Z,1046.00
2023-03-26T09:50:35.308Z,1040.00
2023-03-26T09:54:35.500Z,1061.00
2023-03-26T09:58:35.633Z,1048.00
2023-03-26T10:02:46.486Z,1008.00
2023-03-26T10:06:36.737Z,1000.00
2023-03-26T10:10:35.725Z,1028.00
2023-03-26T10:14:35.657Z,1001.00
2023-03-26T10:18:35.707Z,1032.00
2023-03-26T10:22:35.856Z,952.00
2023-03-26T10:26:36.036Z,954.00
2023-03-26T10:30:36.176Z,1019.00
2023-03-26T10:34:36.324Z,1017.00
2023-03-26T10:38:36.490Z,1009.00
2023-03-26T10:42:36.652Z,988.00
2023-03-26T10:46:36.904Z,995.00
2023-03-26T10:50:37.023Z,951.00
2023-03-26T10:54:37.205Z,979.00
2023-03-26T10:58:48.219Z,870.00
2023-03-26T11:02:38.372Z,857.00
2023-03-26T11:06:37.330Z,883.00
2023-03-26T11:10:37.398Z,790.00
2023-03-26T11:14:37.526Z,804.00
2023-03-26T11:18:37.699Z,758.00
2023-03-26T11:22:37.892Z,806.00
2023-03-26T11:26:39.388Z,794.00
2023-03-26T11:30:38.272Z,734.00
2023-03-26T11:34:38.456Z,725.00
2023-03-26T11:38:38.674Z,709.00
2023-03-26T11:42:38.790Z,735.00
2023-03-26T11:46:39.010Z,755.00
2023-03-26T11:50:39.132Z,776.00
2023-03-26T11:54:39.298Z,782.00
2023-03-26T11:58:39.492Z,840.00
2023-03-26T12:02:40.133Z,844.00
2023-03-26T12:06:39.844Z,814.00
2023-03-26T12:10:40.015Z,864.00
2023-03-26T12:14:40.208Z,888.00
2023-03-26T12:18:40.428Z,939.00
2023-03-26T12:22:42.981Z,883.00
2023-03-26T12:26:40.568Z,883.00
2023-03-26T12:30:40.548Z,891.00
2023-03-26T12:34:40.523Z,867.00
2023-03-26T12:38:40.489Z,701.00
2023-03-26T12:44:54.889Z,678.00
2023-03-26T12:47:56.314Z,647.00
2023-03-26T12:50:41.354Z,623.00
2023-03-26T12:54:40.320Z,625.00
2023-03-26T12:58:40.313Z,564.00
2023-03-26T13:02:40.316Z,500.00
2023-03-26T13:06:59.855Z,507.00
2023-03-26T13:10:41.194Z,470.00
2023-03-26T13:14:40.151Z,505.00
2023-03-26T13:18:40.376Z,513.00
2023-03-26T13:22:40.332Z,512.00
2023-03-26T13:26:40.320Z,500.00
2023-03-26T13:30:40.245Z,532.00
2023-03-26T13:34:40.224Z,532.00
2023-03-26T13:38:40.159Z,518.00
2023-03-26T13:42:40.167Z,532.00
2023-03-26T13:46:40.170Z,541.00
2023-03-26T13:50:40.076Z,527.00
2023-03-26T13:54:40.054Z,505.00
2023-03-26T13:58:40.090Z,542.00
2023-03-26T14:02:40.304Z,539.00
2023-03-26T14:06:40.471Z,548.00
2023-03-26T14:10:40.698Z,536.00
2023-03-26T14:14:40.886Z,533.00
2023-03-26T14:18:41.025Z,513.00
2023-03-26T14:22:41.176Z,506.00
2023-03-26T14:26:41.345Z,555.00
2023-03-26T14:30:41.546Z,556.00
2023-03-26T14:34:41.673Z,524.00
2023-03-26T14:38:41.778Z,550.00
2023-03-26T14:42:41.898Z,558.00
2023-03-26T14:46:42.044Z,550.00
2023-03-26T14:50:42.084Z,567.00
2023-03-26T14:54:42.179Z,538.00
2023-03-26T14:58:42.265Z,568.00
2023-03-26T15:02:42.409Z,571.00
2023-03-26T15:06:42.449Z,541.00
2023-03-26T15:10:42.567Z,553.00
2023-03-26T15:14:42.688Z,556.00
2023-03-26T15:18:42.753Z,587.00
2023-03-26T15:22:42.885Z,584.00
2023-03-26T15:26:42.976Z,584.00
2023-03-26T15:30:43.055Z,607.00
2023-03-26T15:34:43.135Z,595.00
2023-03-26T15:38:43.231Z,588.00
2023-03-26T15:42:43.347Z,593.00
2023-03-26T15:46:43.467Z,600.00
2023-03-26T15:50:43.597Z,591.00
2023-03-26T15:54:43.725Z,588.00
2023-03-26T15:58:43.851Z,642.00
2023-03-26T16:02:44.011Z,616.00
2023-03-26T16:06:44.011Z,636.00
2023-03-26T16:10:44.130Z,632.00
2023-03-26T16:14:44.235Z,620.00
2023-03-26T16:18:44.357Z,614.00
2023-03-26T16:22:44.441Z,611.00
2023-03-26T16:26:44.657Z,610.00
2023-03-26T16:30:44.729Z,631.00
2023-03-26T16:34:44.787Z,655.00
2023-03-26T16:38:44.913Z,666.00
2023-03-26T16:42:45.023Z,654.00
2023-03-26T16:46:45.207Z,663.00
2023-03-26T16:50:45.328Z,643.00
2023-03-26T16:54:46.083Z,663.00
2023-03-26T16:58:45.612Z,701.00
2023-03-26T17:02:45.867Z,698.00
2023-03-26T17:06:45.929Z,728.00
2023-03-26T17:10:46.100Z,728.00
2023-03-26T17:14:46.254Z,663.00
2023-03-26T17:18:46.498Z,699.00
2023-03-26T17:22:47.092Z,692.00
2023-03-26T17:26:46.850Z,663.00
2023-03-26T17:30:47.039Z,652.00
2023-03-26T17:34:47.243Z,810.00
2023-03-26T17:38:47.336Z,845.00
2023-03-26T17:42:47.499Z,809.00
2023-03-26T17:46:48.548Z,783.00
2023-03-26T17:50:47.824Z,843.00
2023-03-26T17:54:48.027Z,794.00
2023-03-26T17:58:48.236Z,960.00
2023-03-26T18:02:48.437Z,869.00
2023-03-26T18:06:48.576Z,792.00
2023-03-26T18:10:48.730Z,837.00
2023-03-26T18:14:48.950Z,690.00
2023-03-26T18:18:49.070Z,685.00
2023-03-26T18:22:49.252Z,661.00
2023-03-26T18:26:49.422Z,568.00
2023-03-26T18:30:49.553Z,596.00
2023-03-26T18:34:49.673Z,554.00
2023-03-26T18:38:49.776Z,652.00
2023-03-26T18:42:49.925Z,619.00
2023-03-26T18:46:50.030Z,596.00
2023-03-26T18:50:50.149Z,619.00
2023-03-26T18:54:50.238Z,582.00
2023-03-26T18:58:50.326Z,585.00
2023-03-26T19:02:50.424Z,534.00
2023-03-26T19:06:50.493Z,520.00
2023-03-26T19:10:50.577Z,584.00
2023-03-26T19:14:50.666Z,577.00
2023-03-26T19:18:50.759Z,599.00
2023-03-26T19:22:50.795Z,572.00
2023-03-26T19:26:51.051Z,588.00
2023-03-26T19:30:52.722Z,625.00
2023-03-26T19:34:51.061Z,650.00
2023-03-26T19:38:51.177Z,593.00
2023-03-26T19:42:51.264Z,532.00
2023-03-26T19:50:52.330Z,486.00
2023-03-26T19:51:18.503Z,533.00
2023-03-26T19:55:00.042Z,490.00
2023-03-26T19:58:52.346Z,572.00
2023-03-26T20:02:51.334Z,646.00
2023-03-26T20:06:51.182Z,534.00
2023-03-26T20:10:51.151Z,593.00
2023-03-26T20:14:51.225Z,611.00
2023-03-26T20:18:51.291Z,566.00
2023-03-26T20:22:51.297Z,569.00
2023-03-26T20:26:51.338Z,550.00
2023-03-26T20:30:51.431Z,548.00
2023-03-26T20:34:51.437Z,500.00
2023-03-26T20:38:51.540Z,577.00
2023-03-26T20:42:51.622Z,570.00
2023-03-26T20:46:51.712Z,541.00
2023-03-26T20:50:51.730Z,512.00
2023-03-26T20:54:51.806Z,537.00
2023-03-26T20:58:57.593Z,529.00
2023-03-26T21:02:52.797Z,515.00
2023-03-26T21:06:53.379Z,558.00
2023-03-26T21:10:51.651Z,574.00
2023-03-26T21:14:51.616Z,547.00
2023-03-26T21:18:51.574Z,575.00
2023-03-26T21:22:51.506Z,607.00
2023-03-26T21:26:51.490Z,560.00
2023-03-26T21:30:51.499Z,524.00
2023-03-26T21:34:58.040Z,557.00
2023-03-26T21:38:52.376Z,529.00
2023-03-26T21:42:51.339Z,522.00
2023-03-26T21:46:51.287Z,630.00
2023-03-26T21:50:51.252Z,647.00
2023-03-26T21:54:51.222Z,539.00
2023-03-26T21:58:51.218Z,572.00
2023-03-26T22:02:51.210Z,581.00
2023-03-26T22:06:51.195Z,490.00
2023-03-26T22:10:51.090Z,568.00
2023-03-26T22:14:51.021Z,568.00
2023-03-26T22:18:50.993Z,553.00
2023-03-26T22:22:50.958Z,504.00
2023-03-26T22:26:50.919Z,579.00
2023-03-26T22:30:50.936Z,584.00
2023-03-26T22:34:50.851Z,598.00
2023-03-26T22:38:50.899Z,515.00
2023-03-26T22:42:50.797Z,599.00
2023-03-26T22:46:50.743Z,602.00
2023-03-26T22:50:50.723Z,573.00
2023-03-26T22:54:50.671Z,629.00
2023-03-26T22:58:50.660Z,616.00
2023-03-26T23:02:50.665Z,556.00
2023-03-26T23:06:50.627Z,578.00
2023-03-26T23:10:50.643Z,590.00
2023-03-26T23:14:50.633Z,588.00
2023-03-26T23:18:50.671Z,633.00
2023-03-26T23:22:50.666Z,559.00
2023-03-26T23:26:51.371Z,586.00
2023-03-26T23:30:50.683Z,569.00
2023-03-26T23:34:52.042Z,583.00
2023-03-26T23:38:50.733Z,556.00
2023-03-26T23:42:50.680Z,587.00
2023-03-26T23:46:50.704Z,623.00
2023-03-26T23:50:50.695Z,642.00
2023-03-26T23:54:50.719Z,586.00
2023-03-26T23:58:50.818Z,660.00
